sensor_id;sensor_type;location;lat;lon;timestamp;P1;durP1;ratioP1;P2;durP2;ratioP2
15950;SDS011;8074;48.112;11.570;2022-09-14T00:01:21;4.60;;;3.23;;
15950;SDS011;8074;48.112;11.570;2022-09-14T00:03:50;9.63;;;3.40;;
15950;SDS011;8074;48.112;11.570;2022-09-14T00:06:21;4.97;;;3.03;;
15950;SDS011;8074;48.112;11.570;2022-09-14T00:08:49;3.57;;;3.00;;
15950;SDS011;8074;48.112;11.570;2022-09-14T00:11:17;3.20;;;2.77;;
15950;SDS011;8074;48.112;11.570;2022-09-14T00:13:47;6.37;;;3.20;;
15950;SDS011;8074;48.112;11.570;2022-09-14T00:16:15;6.97;;;3.60;;
15950;SDS011;8074;48.112;11.570;2022-09-14T00:18:44;7.27;;;3.00;;
15950;SDS011;8074;48.112;11.570;2022-09-14T00:21:15;5.00;;;3.10;;
15950;SDS011;8074;48.112;11.570;2022-09-14T00:23:42;6.23;;;3.47;;
15950;SDS011;8074;48.112;11.570;2022-09-14T00:26:10;6.57;;;3.30;;
15950;SDS011;8074;48.112;11.570;2022-09-14T00:28:39;4.43;;;3.10;;
15950;SDS011;8074;48.112;11.570;2022-09-14T00:31:09;7.13;;;3.43;;
15950;SDS011;8074;48.112;11.570;2022-09-14T00:33:39;4.60;;;3.30;;
15950;SDS011;8074;48.112;11.570;2022-09-14T00:36:09;4.53;;;2.93;;
15950;SDS011;8074;48.112;11.570;2022-09-14T00:38:56;7.17;;;3.03;;
15950;SDS011;8074;48.112;11.570;2022-09-14T00:41:45;5.00;;;3.27;;
15950;SDS011;8074;48.112;11.570;2022-09-14T00:47:56;6.57;;;3.27;;
15950;SDS011;8074;48.112;11.570;2022-09-14T00:50:43;3.73;;;3.10;;
15950;SDS011;8074;48.112;11.570;2022-09-14T00:53:31;3.50;;;2.97;;
15950;SDS011;8074;48.112;11.570;2022-09-14T00:56:19;5.30;;;3.03;;
15950;SDS011;8074;48.112;11.570;2022-09-14T00:59:08;4.63;;;2.93;;
15950;SDS011;8074;48.112;11.570;2022-09-14T01:01:59;3.50;;;3.00;;
15950;SDS011;8074;48.112;11.570;2022-09-14T01:04:48;5.73;;;3.30;;
15950;SDS011;8074;48.112;11.570;2022-09-14T01:07:50;6.30;;;3.00;;
15950;SDS011;8074;48.112;11.570;2022-09-14T01:10:35;4.47;;;3.20;;
15950;SDS011;8074;48.112;11.570;2022-09-14T01:13:18;5.80;;;2.90;;
15950;SDS011;8074;48.112;11.570;2022-09-14T01:15:53;3.47;;;2.87;;
15950;SDS011;8074;48.112;11.570;2022-09-14T01:18:28;5.47;;;3.00;;
15950;SDS011;8074;48.112;11.570;2022-09-14T01:21:03;5.63;;;3.20;;
15950;SDS011;8074;48.112;11.570;2022-09-14T01:23:35;8.17;;;2.97;;
15950;SDS011;8074;48.112;11.570;2022-09-14T01:26:27;3.13;;;2.70;;
15950;SDS011;8074;48.112;11.570;2022-09-14T01:29:12;7.17;;;2.83;;
15950;SDS011;8074;48.112;11.570;2022-09-14T01:31:44;5.13;;;3.10;;
15950;SDS011;8074;48.112;11.570;2022-09-14T01:34:15;3.20;;;2.67;;
15950;SDS011;8074;48.112;11.570;2022-09-14T01:36:52;5.70;;;2.90;;
15950;SDS011;8074;48.112;11.570;2022-09-14T01:39:24;4.50;;;2.90;;
15950;SDS011;8074;48.112;11.570;2022-09-14T01:41:56;3.73;;;2.57;;
15950;SDS011;8074;48.112;11.570;2022-09-14T01:44:28;4.77;;;3.00;;
15950;SDS011;8074;48.112;11.570;2022-09-14T01:47:01;2.77;;;2.50;;
15950;SDS011;8074;48.112;11.570;2022-09-14T01:49:33;7.20;;;2.80;;
15950;SDS011;8074;48.112;11.570;2022-09-14T01:52:06;4.33;;;2.70;;
15950;SDS011;8074;48.112;11.570;2022-09-14T01:54:37;4.87;;;2.70;;
15950;SDS011;8074;48.112;11.570;2022-09-14T01:57:08;6.03;;;2.70;;
15950;SDS011;8074;48.112;11.570;2022-09-14T01:59:44;4.83;;;2.70;;
15950;SDS011;8074;48.112;11.570;2022-09-14T02:02:15;5.10;;;2.70;;
15950;SDS011;8074;48.112;11.570;2022-09-14T02:04:47;3.67;;;2.67;;
15950;SDS011;8074;48.112;11.570;2022-09-14T02:07:17;6.70;;;3.00;;
15950;SDS011;8074;48.112;11.570;2022-09-14T02:09:45;3.13;;;2.50;;
15950;SDS011;8074;48.112;11.570;2022-09-14T02:12:15;2.93;;;2.67;;
15950;SDS011;8074;48.112;11.570;2022-09-14T02:14:44;5.37;;;2.60;;
15950;SDS011;8074;48.112;11.570;2022-09-14T02:17:12;4.70;;;2.60;;
15950;SDS011;8074;48.112;11.570;2022-09-14T02:19:54;5.00;;;2.80;;
15950;SDS011;8074;48.112;11.570;2022-09-14T02:22:24;5.93;;;2.50;;
15950;SDS011;8074;48.112;11.570;2022-09-14T02:24:52;5.63;;;2.70;;
15950;SDS011;8074;48.112;11.570;2022-09-14T02:27:20;3.60;;;2.60;;
15950;SDS011;8074;48.112;11.570;2022-09-14T02:29:50;4.40;;;2.70;;
15950;SDS011;8074;48.112;11.570;2022-09-14T02:32:20;4.23;;;2.53;;
15950;SDS011;8074;48.112;11.570;2022-09-14T02:34:56;6.40;;;2.60;;
15950;SDS011;8074;48.112;11.570;2022-09-14T02:37:29;3.17;;;2.40;;
15950;SDS011;8074;48.112;11.570;2022-09-14T02:40:09;3.00;;;2.63;;
15950;SDS011;8074;48.112;11.570;2022-09-14T02:42:44;3.23;;;2.40;;
15950;SDS011;8074;48.112;11.570;2022-09-14T02:45:23;4.80;;;2.47;;
15950;SDS011;8074;48.112;11.570;2022-09-14T02:47:59;4.53;;;2.50;;
15950;SDS011;8074;48.112;11.570;2022-09-14T02:50:32;3.03;;;2.33;;
15950;SDS011;8074;48.112;11.570;2022-09-14T02:53:06;3.97;;;2.47;;
15950;SDS011;8074;48.112;11.570;2022-09-14T02:55:40;3.47;;;2.43;;
15950;SDS011;8074;48.112;11.570;2022-09-14T02:58:12;5.40;;;2.70;;
15950;SDS011;8074;48.112;11.570;2022-09-14T03:00:42;4.90;;;2.80;;
15950;SDS011;8074;48.112;11.570;2022-09-14T03:03:11;6.13;;;3.03;;
15950;SDS011;8074;48.112;11.570;2022-09-14T03:05:40;5.03;;;2.80;;
15950;SDS011;8074;48.112;11.570;2022-09-14T03:08:08;4.23;;;2.80;;
15950;SDS011;8074;48.112;11.570;2022-09-14T03:10:36;3.00;;;2.30;;
15950;SDS011;8074;48.112;11.570;2022-09-14T03:13:03;3.10;;;2.63;;
15950;SDS011;8074;48.112;11.570;2022-09-14T03:15:30;3.20;;;2.90;;
15950;SDS011;8074;48.112;11.570;2022-09-14T03:17:59;4.50;;;2.50;;
15950;SDS011;8074;48.112;11.570;2022-09-14T03:20:27;7.10;;;4.70;;
15950;SDS011;8074;48.112;11.570;2022-09-14T03:22:57;3.40;;;2.43;;
15950;SDS011;8074;48.112;11.570;2022-09-14T03:25:25;6.07;;;2.97;;
15950;SDS011;8074;48.112;11.570;2022-09-14T03:27:53;6.03;;;2.50;;
15950;SDS011;8074;48.112;11.570;2022-09-14T03:30:21;4.13;;;2.43;;
15950;SDS011;8074;48.112;11.570;2022-09-14T03:32:49;4.57;;;2.37;;
15950;SDS011;8074;48.112;11.570;2022-09-14T03:35:18;6.10;;;3.90;;
15950;SDS011;8074;48.112;11.570;2022-09-14T03:37:46;3.97;;;2.70;;
15950;SDS011;8074;48.112;11.570;2022-09-14T03:40:14;8.47;;;5.40;;
15950;SDS011;8074;48.112;11.570;2022-09-14T03:42:43;4.77;;;2.53;;
15950;SDS011;8074;48.112;11.570;2022-09-14T03:45:11;5.03;;;2.33;;
15950;SDS011;8074;48.112;11.570;2022-09-14T03:47:39;5.20;;;2.60;;
15950;SDS011;8074;48.112;11.570;2022-09-14T03:50:07;3.07;;;2.30;;
15950;SDS011;8074;48.112;11.570;2022-09-14T03:52:36;3.83;;;2.73;;
15950;SDS011;8074;48.112;11.570;2022-09-14T03:55:04;4.50;;;3.30;;
15950;SDS011;8074;48.112;11.570;2022-09-14T03:57:33;3.87;;;3.00;;
15950;SDS011;8074;48.112;11.570;2022-09-14T04:00:00;3.23;;;2.30;;
15950;SDS011;8074;48.112;11.570;2022-09-14T04:02:29;5.63;;;2.23;;
15950;SDS011;8074;48.112;11.570;2022-09-14T04:04:55;4.33;;;2.70;;
15950;SDS011;8074;48.112;11.570;2022-09-14T04:07:23;6.53;;;2.53;;
15950;SDS011;8074;48.112;11.570;2022-09-14T04:09:51;3.37;;;2.20;;
15950;SDS011;8074;48.112;11.570;2022-09-14T04:12:18;3.70;;;2.40;;
15950;SDS011;8074;48.112;11.570;2022-09-14T04:14:45;3.43;;;2.10;;
15950;SDS011;8074;48.112;11.570;2022-09-14T04:17:13;4.10;;;1.97;;
15950;SDS011;8074;48.112;11.570;2022-09-14T04:19:40;3.17;;;2.10;;
15950;SDS011;8074;48.112;11.570;2022-09-14T04:22:26;2.43;;;1.70;;
15950;SDS011;8074;48.112;11.570;2022-09-14T04:24:55;2.53;;;1.80;;
15950;SDS011;8074;48.112;11.570;2022-09-14T04:27:22;4.50;;;2.00;;
15950;SDS011;8074;48.112;11.570;2022-09-14T04:29:49;8.00;;;3.70;;
15950;SDS011;8074;48.112;11.570;2022-09-14T04:32:36;3.93;;;2.00;;
15950;SDS011;8074;48.112;11.570;2022-09-14T04:35:25;3.00;;;2.30;;
15950;SDS011;8074;48.112;11.570;2022-09-14T04:38:13;5.47;;;2.30;;
15950;SDS011;8074;48.112;11.570;2022-09-14T04:41:03;3.33;;;1.77;;
15950;SDS011;8074;48.112;11.570;2022-09-14T04:43:32;3.30;;;1.90;;
15950;SDS011;8074;48.112;11.570;2022-09-14T04:46:00;5.30;;;2.17;;
15950;SDS011;8074;48.112;11.570;2022-09-14T04:48:29;4.33;;;2.07;;
15950;SDS011;8074;48.112;11.570;2022-09-14T04:50:59;3.60;;;2.10;;
15950;SDS011;8074;48.112;11.570;2022-09-14T04:53:31;2.93;;;2.40;;
15950;SDS011;8074;48.112;11.570;2022-09-14T04:55:59;4.83;;;1.87;;
15950;SDS011;8074;48.112;11.570;2022-09-14T04:58:29;4.93;;;2.00;;
15950;SDS011;8074;48.112;11.570;2022-09-14T05:01:00;2.40;;;1.60;;
15950;SDS011;8074;48.112;11.570;2022-09-14T05:03:28;2.90;;;1.80;;
15950;SDS011;8074;48.112;11.570;2022-09-14T05:05:59;3.53;;;1.83;;
15950;SDS011;8074;48.112;11.570;2022-09-14T05:08:42;4.77;;;2.20;;
15950;SDS011;8074;48.112;11.570;2022-09-14T05:11:11;4.03;;;2.03;;
15950;SDS011;8074;48.112;11.570;2022-09-14T05:13:40;3.10;;;1.93;;
15950;SDS011;8074;48.112;11.570;2022-09-14T05:16:13;3.30;;;1.90;;
15950;SDS011;8074;48.112;11.570;2022-09-14T05:18:42;2.10;;;1.67;;
15950;SDS011;8074;48.112;11.570;2022-09-14T05:21:12;3.97;;;1.70;;
15950;SDS011;8074;48.112;11.570;2022-09-14T05:23:41;2.30;;;1.93;;
15950;SDS011;8074;48.112;11.570;2022-09-14T05:26:10;5.40;;;1.90;;
15950;SDS011;8074;48.112;11.570;2022-09-14T05:28:39;6.70;;;2.10;;
15950;SDS011;8074;48.112;11.570;2022-09-14T05:31:07;4.50;;;2.03;;
15950;SDS011;8074;48.112;11.570;2022-09-14T05:33:37;4.63;;;1.77;;
15950;SDS011;8074;48.112;11.570;2022-09-14T05:36:08;7.63;;;1.80;;
15950;SDS011;8074;48.112;11.570;2022-09-14T05:38:39;8.53;;;2.70;;
15950;SDS011;8074;48.112;11.570;2022-09-14T05:41:22;8.47;;;2.10;;
15950;SDS011;8074;48.112;11.570;2022-09-14T05:43:58;6.30;;;2.00;;
15950;SDS011;8074;48.112;11.570;2022-09-14T05:46:31;4.23;;;2.20;;
15950;SDS011;8074;48.112;11.570;2022-09-14T05:49:14;4.27;;;2.00;;
15950;SDS011;8074;48.112;11.570;2022-09-14T05:51:42;7.07;;;2.10;;
15950;SDS011;8074;48.112;11.570;2022-09-14T05:54:10;4.50;;;2.03;;
15950;SDS011;8074;48.112;11.570;2022-09-14T05:56:39;6.30;;;2.40;;
15950;SDS011;8074;48.112;11.570;2022-09-14T05:59:08;5.43;;;2.20;;
15950;SDS011;8074;48.112;11.570;2022-09-14T06:01:37;4.53;;;1.90;;
15950;SDS011;8074;48.112;11.570;2022-09-14T06:04:18;5.70;;;2.30;;
15950;SDS011;8074;48.112;11.570;2022-09-14T06:07:00;8.77;;;2.73;;
15950;SDS011;8074;48.112;11.570;2022-09-14T06:09:27;6.67;;;2.23;;
15950;SDS011;8074;48.112;11.570;2022-09-14T06:14:40;5.97;;;2.60;;
15950;SDS011;8074;48.112;11.570;2022-09-14T06:17:10;5.70;;;2.30;;
15950;SDS011;8074;48.112;11.570;2022-09-14T06:19:48;3.53;;;2.00;;
15950;SDS011;8074;48.112;11.570;2022-09-14T06:22:42;7.47;;;2.37;;
15950;SDS011;8074;48.112;11.570;2022-09-14T06:25:09;7.47;;;2.37;;
15950;SDS011;8074;48.112;11.570;2022-09-14T06:27:39;6.77;;;2.80;;
15950;SDS011;8074;48.112;11.570;2022-09-14T06:30:20;4.43;;;2.10;;
15950;SDS011;8074;48.112;11.570;2022-09-14T06:32:47;7.77;;;2.40;;
15950;SDS011;8074;48.112;11.570;2022-09-14T06:35:24;5.40;;;2.23;;
15950;SDS011;8074;48.112;11.570;2022-09-14T06:38:00;7.80;;;2.30;;
15950;SDS011;8074;48.112;11.570;2022-09-14T06:40:30;9.43;;;2.40;;
15950;SDS011;8074;48.112;11.570;2022-09-14T06:42:59;4.50;;;1.90;;
15950;SDS011;8074;48.112;11.570;2022-09-14T06:45:27;5.97;;;2.20;;
15950;SDS011;8074;48.112;11.570;2022-09-14T06:47:55;5.43;;;2.20;;
15950;SDS011;8074;48.112;11.570;2022-09-14T06:50:23;7.40;;;2.60;;
15950;SDS011;8074;48.112;11.570;2022-09-14T06:52:51;4.40;;;2.17;;
15950;SDS011;8074;48.112;11.570;2022-09-14T06:55:18;8.07;;;2.70;;
15950;SDS011;8074;48.112;11.570;2022-09-14T06:57:46;5.60;;;2.27;;
15950;SDS011;8074;48.112;11.570;2022-09-14T07:00:21;9.47;;;2.40;;
15950;SDS011;8074;48.112;11.570;2022-09-14T07:02:49;7.43;;;2.60;;
15950;SDS011;8074;48.112;11.570;2022-09-14T07:05:16;9.03;;;2.60;;
15950;SDS011;8074;48.112;11.570;2022-09-14T07:07:50;6.70;;;2.20;;
15950;SDS011;8074;48.112;11.570;2022-09-14T07:10:18;6.00;;;2.83;;
15950;SDS011;8074;48.112;11.570;2022-09-14T07:12:45;5.67;;;2.70;;
15950;SDS011;8074;48.112;11.570;2022-09-14T07:15:12;4.90;;;2.57;;
15950;SDS011;8074;48.112;11.570;2022-09-14T07:17:43;5.83;;;2.80;;
15950;SDS011;8074;48.112;11.570;2022-09-14T07:20:10;4.90;;;2.90;;
15950;SDS011;8074;48.112;11.570;2022-09-14T07:22:55;6.93;;;2.70;;
15950;SDS011;8074;48.112;11.570;2022-09-14T07:25:22;4.30;;;2.43;;
15950;SDS011;8074;48.112;11.570;2022-09-14T07:27:49;7.67;;;2.47;;
15950;SDS011;8074;48.112;11.570;2022-09-14T07:30:17;8.50;;;2.53;;
15950;SDS011;8074;48.112;11.570;2022-09-14T07:32:44;8.40;;;3.17;;
15950;SDS011;8074;48.112;11.570;2022-09-14T07:35:11;7.87;;;2.90;;
15950;SDS011;8074;48.112;11.570;2022-09-14T07:37:38;4.70;;;2.67;;
15950;SDS011;8074;48.112;11.570;2022-09-14T07:40:05;9.60;;;2.97;;
15950;SDS011;8074;48.112;11.570;2022-09-14T07:42:35;7.20;;;2.90;;
15950;SDS011;8074;48.112;11.570;2022-09-14T07:45:03;8.60;;;2.70;;
15950;SDS011;8074;48.112;11.570;2022-09-14T07:47:32;8.20;;;2.40;;
15950;SDS011;8074;48.112;11.570;2022-09-14T07:49:59;5.00;;;2.37;;
15950;SDS011;8074;48.112;11.570;2022-09-14T07:52:26;4.63;;;2.30;;
15950;SDS011;8074;48.112;11.570;2022-09-14T07:54:53;7.27;;;2.40;;
15950;SDS011;8074;48.112;11.570;2022-09-14T07:57:20;3.83;;;1.87;;
15950;SDS011;8074;48.112;11.570;2022-09-14T07:59:47;5.67;;;2.33;;
15950;SDS011;8074;48.112;11.570;2022-09-14T08:02:14;6.13;;;2.40;;
15950;SDS011;8074;48.112;11.570;2022-09-14T08:04:43;6.53;;;2.20;;
15950;SDS011;8074;48.112;11.570;2022-09-14T08:07:10;6.00;;;2.17;;
15950;SDS011;8074;48.112;11.570;2022-09-14T08:09:37;4.87;;;2.07;;
15950;SDS011;8074;48.112;11.570;2022-09-14T08:12:04;3.53;;;2.10;;
15950;SDS011;8074;48.112;11.570;2022-09-14T08:14:31;4.97;;;2.10;;
15950;SDS011;8074;48.112;11.570;2022-09-14T08:16:58;4.07;;;1.90;;
15950;SDS011;8074;48.112;11.570;2022-09-14T08:19:25;3.20;;;2.03;;
15950;SDS011;8074;48.112;11.570;2022-09-14T08:21:53;3.20;;;1.73;;
15950;SDS011;8074;48.112;11.570;2022-09-14T08:24:20;3.17;;;1.90;;
15950;SDS011;8074;48.112;11.570;2022-09-14T08:26:48;3.47;;;1.67;;
15950;SDS011;8074;48.112;11.570;2022-09-14T08:29:15;3.57;;;1.80;;
15950;SDS011;8074;48.112;11.570;2022-09-14T08:31:43;6.20;;;2.07;;
15950;SDS011;8074;48.112;11.570;2022-09-14T08:34:11;6.97;;;2.30;;
15950;SDS011;8074;48.112;11.570;2022-09-14T08:36:39;3.83;;;1.90;;
15950;SDS011;8074;48.112;11.570;2022-09-14T08:39:09;3.37;;;1.70;;
15950;SDS011;8074;48.112;11.570;2022-09-14T08:41:39;6.30;;;2.60;;
15950;SDS011;8074;48.112;11.570;2022-09-14T08:44:13;6.30;;;1.90;;
15950;SDS011;8074;48.112;11.570;2022-09-14T08:46:44;6.40;;;1.93;;
15950;SDS011;8074;48.112;11.570;2022-09-14T08:49:17;3.10;;;1.50;;
15950;SDS011;8074;48.112;11.570;2022-09-14T08:51:50;5.73;;;2.17;;
15950;SDS011;8074;48.112;11.570;2022-09-14T08:54:19;4.87;;;2.13;;
15950;SDS011;8074;48.112;11.570;2022-09-14T08:56:47;4.40;;;1.53;;
15950;SDS011;8074;48.112;11.570;2022-09-14T08:59:22;5.37;;;1.73;;
15950;SDS011;8074;48.112;11.570;2022-09-14T09:02:01;9.60;;;2.10;;
15950;SDS011;8074;48.112;11.570;2022-09-14T09:04:43;3.07;;;1.53;;
15950;SDS011;8074;48.112;11.570;2022-09-14T09:07:17;3.37;;;1.60;;
15950;SDS011;8074;48.112;11.570;2022-09-14T09:09:55;3.13;;;1.73;;
15950;SDS011;8074;48.112;11.570;2022-09-14T09:12:23;3.90;;;1.97;;
15950;SDS011;8074;48.112;11.570;2022-09-14T09:14:59;4.57;;;2.17;;
15950;SDS011;8074;48.112;11.570;2022-09-14T09:17:30;4.67;;;2.03;;
15950;SDS011;8074;48.112;11.570;2022-09-14T09:20:03;7.37;;;2.07;;
15950;SDS011;8074;48.112;11.570;2022-09-14T09:22:37;4.37;;;1.77;;
15950;SDS011;8074;48.112;11.570;2022-09-14T09:25:13;8.70;;;1.83;;
15950;SDS011;8074;48.112;11.570;2022-09-14T09:27:44;5.60;;;1.77;;
15950;SDS011;8074;48.112;11.570;2022-09-14T09:30:12;6.30;;;1.93;;
15950;SDS011;8074;48.112;11.570;2022-09-14T09:32:40;5.90;;;2.13;;
15950;SDS011;8074;48.112;11.570;2022-09-14T09:35:09;5.47;;;2.00;;
15950;SDS011;8074;48.112;11.570;2022-09-14T09:37:39;4.47;;;1.83;;
15950;SDS011;8074;48.112;11.570;2022-09-14T09:40:14;6.77;;;1.87;;
15950;SDS011;8074;48.112;11.570;2022-09-14T09:45:46;5.80;;;2.10;;
15950;SDS011;8074;48.112;11.570;2022-09-14T09:48:17;4.20;;;1.80;;
15950;SDS011;8074;48.112;11.570;2022-09-14T09:50:46;3.40;;;1.93;;
15950;SDS011;8074;48.112;11.570;2022-09-14T09:53:15;3.97;;;1.80;;
15950;SDS011;8074;48.112;11.570;2022-09-14T09:55:46;4.30;;;1.93;;
15950;SDS011;8074;48.112;11.570;2022-09-14T09:58:21;5.20;;;1.77;;
15950;SDS011;8074;48.112;11.570;2022-09-14T10:00:54;5.23;;;2.00;;
15950;SDS011;8074;48.112;11.570;2022-09-14T10:03:38;4.77;;;1.93;;
15950;SDS011;8074;48.112;11.570;2022-09-14T10:06:07;6.83;;;2.03;;
15950;SDS011;8074;48.112;11.570;2022-09-14T10:08:39;7.30;;;2.10;;
15950;SDS011;8074;48.112;11.570;2022-09-14T10:13:58;3.93;;;2.10;;
15950;SDS011;8074;48.112;11.570;2022-09-14T10:16:27;5.53;;;2.00;;
15950;SDS011;8074;48.112;11.570;2022-09-14T10:19:00;6.53;;;2.30;;
15950;SDS011;8074;48.112;11.570;2022-09-14T10:21:28;5.03;;;2.50;;
15950;SDS011;8074;48.112;11.570;2022-09-14T10:24:04;3.83;;;2.17;;
15950;SDS011;8074;48.112;11.570;2022-09-14T10:26:43;5.10;;;2.00;;
15950;SDS011;8074;48.112;11.570;2022-09-14T10:29:17;4.30;;;2.27;;
15950;SDS011;8074;48.112;11.570;2022-09-14T10:32:02;7.33;;;2.40;;
15950;SDS011;8074;48.112;11.570;2022-09-14T10:34:36;5.53;;;2.20;;
15950;SDS011;8074;48.112;11.570;2022-09-14T10:37:11;10.57;;;2.43;;
15950;SDS011;8074;48.112;11.570;2022-09-14T10:40:04;7.00;;;2.40;;
15950;SDS011;8074;48.112;11.570;2022-09-14T10:42:42;4.60;;;2.30;;
15950;SDS011;8074;48.112;11.570;2022-09-14T10:45:18;7.60;;;2.50;;
15950;SDS011;8074;48.112;11.570;2022-09-14T10:47:58;4.10;;;2.07;;
15950;SDS011;8074;48.112;11.570;2022-09-14T10:50:42;6.63;;;2.10;;
15950;SDS011;8074;48.112;11.570;2022-09-14T10:53:22;5.37;;;2.23;;
15950;SDS011;8074;48.112;11.570;2022-09-14T10:55:58;5.23;;;2.03;;
15950;SDS011;8074;48.112;11.570;2022-09-14T10:58:43;6.27;;;2.00;;
15950;SDS011;8074;48.112;11.570;2022-09-14T11:01:43;8.10;;;2.20;;
15950;SDS011;8074;48.112;11.570;2022-09-14T11:07:26;9.30;;;2.13;;
15950;SDS011;8074;48.112;11.570;2022-09-14T11:09:59;6.70;;;2.47;;
15950;SDS011;8074;48.112;11.570;2022-09-14T11:12:34;6.70;;;2.20;;
15950;SDS011;8074;48.112;11.570;2022-09-14T11:15:13;6.13;;;1.80;;
15950;SDS011;8074;48.112;11.570;2022-09-14T11:17:58;5.77;;;2.10;;
15950;SDS011;8074;48.112;11.570;2022-09-14T11:20:36;3.87;;;2.03;;
15950;SDS011;8074;48.112;11.570;2022-09-14T11:23:17;7.17;;;2.17;;
15950;SDS011;8074;48.112;11.570;2022-09-14T11:25:52;4.67;;;1.90;;
15950;SDS011;8074;48.112;11.570;2022-09-14T11:28:25;8.53;;;1.90;;
15950;SDS011;8074;48.112;11.570;2022-09-14T11:31:01;6.80;;;1.93;;
15950;SDS011;8074;48.112;11.570;2022-09-14T11:33:32;8.63;;;2.00;;
15950;SDS011;8074;48.112;11.570;2022-09-14T11:36:03;5.30;;;2.10;;
15950;SDS011;8074;48.112;11.570;2022-09-14T11:38:35;9.20;;;2.27;;
15950;SDS011;8074;48.112;11.570;2022-09-14T11:41:11;3.13;;;1.90;;
15950;SDS011;8074;48.112;11.570;2022-09-14T11:43:46;7.00;;;2.10;;
15950;SDS011;8074;48.112;11.570;2022-09-14T11:49:04;7.63;;;2.23;;
15950;SDS011;8074;48.112;11.570;2022-09-14T11:51:42;6.67;;;2.27;;
15950;SDS011;8074;48.112;11.570;2022-09-14T11:54:13;5.03;;;2.13;;
15950;SDS011;8074;48.112;11.570;2022-09-14T11:56:41;3.83;;;2.00;;
15950;SDS011;8074;48.112;11.570;2022-09-14T12:05:51;6.83;;;2.33;;
15950;SDS011;8074;48.112;11.570;2022-09-14T12:08:39;6.23;;;2.00;;
15950;SDS011;8074;48.112;11.570;2022-09-14T12:14:44;4.17;;;2.10;;
15950;SDS011;8074;48.112;11.570;2022-09-14T12:22:12;5.03;;;2.03;;
15950;SDS011;8074;48.112;11.570;2022-09-14T12:24:58;2.60;;;1.60;;
15950;SDS011;8074;48.112;11.570;2022-09-14T12:28:19;5.33;;;2.10;;
15950;SDS011;8074;48.112;11.570;2022-09-14T12:55:04;5.87;;;2.20;;
15950;SDS011;8074;48.112;11.570;2022-09-14T13:01:27;4.77;;;2.50;;
15950;SDS011;8074;48.112;11.570;2022-09-14T13:04:52;8.30;;;2.00;;
15950;SDS011;8074;48.112;11.570;2022-09-14T13:07:34;7.97;;;2.40;;
15950;SDS011;8074;48.112;11.570;2022-09-14T13:10:19;5.33;;;1.83;;
15950;SDS011;8074;48.112;11.570;2022-09-14T13:13:21;7.00;;;2.40;;
15950;SDS011;8074;48.112;11.570;2022-09-14T13:16:11;6.73;;;2.27;;
15950;SDS011;8074;48.112;11.570;2022-09-14T13:18:57;6.43;;;1.83;;
15950;SDS011;8074;48.112;11.570;2022-09-14T13:21:45;6.77;;;2.00;;
15950;SDS011;8074;48.112;11.570;2022-09-14T13:27:03;4.03;;;2.10;;
15950;SDS011;8074;48.112;11.570;2022-09-14T13:30:03;9.13;;;2.20;;
15950;SDS011;8074;48.112;11.570;2022-09-14T13:36:47;4.80;;;2.00;;
15950;SDS011;8074;48.112;11.570;2022-09-14T13:39:19;4.90;;;2.10;;
15950;SDS011;8074;48.112;11.570;2022-09-14T13:41:50;4.27;;;2.07;;
15950;SDS011;8074;48.112;11.570;2022-09-14T13:44:55;5.10;;;1.83;;
15950;SDS011;8074;48.112;11.570;2022-09-14T13:47:29;5.47;;;2.20;;
15950;SDS011;8074;48.112;11.570;2022-09-14T13:50:14;9.97;;;2.50;;
15950;SDS011;8074;48.112;11.570;2022-09-14T13:52:49;7.23;;;2.33;;
15950;SDS011;8074;48.112;11.570;2022-09-14T13:55:21;8.17;;;1.90;;
15950;SDS011;8074;48.112;11.570;2022-09-14T14:00:56;5.93;;;2.53;;
15950;SDS011;8074;48.112;11.570;2022-09-14T14:03:33;7.67;;;2.23;;
15950;SDS011;8074;48.112;11.570;2022-09-14T14:09:16;8.43;;;2.27;;
15950;SDS011;8074;48.112;11.570;2022-09-14T14:11:52;8.13;;;2.77;;
15950;SDS011;8074;48.112;11.570;2022-09-14T14:15:26;8.17;;;2.07;;
15950;SDS011;8074;48.112;11.570;2022-09-14T14:21:24;5.57;;;2.43;;
15950;SDS011;8074;48.112;11.570;2022-09-14T14:27:02;6.50;;;2.43;;
15950;SDS011;8074;48.112;11.570;2022-09-14T14:29:29;5.83;;;2.00;;
15950;SDS011;8074;48.112;11.570;2022-09-14T14:31:56;6.47;;;2.20;;
15950;SDS011;8074;48.112;11.570;2022-09-14T14:34:42;7.47;;;2.40;;
15950;SDS011;8074;48.112;11.570;2022-09-14T14:37:29;3.93;;;2.00;;
15950;SDS011;8074;48.112;11.570;2022-09-14T14:40:19;4.70;;;2.20;;
15950;SDS011;8074;48.112;11.570;2022-09-14T14:43:11;8.53;;;2.10;;
15950;SDS011;8074;48.112;11.570;2022-09-14T14:46:05;5.37;;;2.10;;
15950;SDS011;8074;48.112;11.570;2022-09-14T14:48:53;5.63;;;1.90;;
15950;SDS011;8074;48.112;11.570;2022-09-14T14:52:00;6.13;;;2.03;;
15950;SDS011;8074;48.112;11.570;2022-09-14T14:58:22;3.07;;;1.90;;
15950;SDS011;8074;48.112;11.570;2022-09-14T15:01:10;2.63;;;1.70;;
15950;SDS011;8074;48.112;11.570;2022-09-14T15:03:58;6.23;;;2.23;;
15950;SDS011;8074;48.112;11.570;2022-09-14T15:06:46;5.30;;;2.10;;
15950;SDS011;8074;48.112;11.570;2022-09-14T15:09:37;5.23;;;1.90;;
15950;SDS011;8074;48.112;11.570;2022-09-14T15:14:56;4.33;;;2.57;;
15950;SDS011;8074;48.112;11.570;2022-09-14T15:17:27;6.43;;;2.10;;
15950;SDS011;8074;48.112;11.570;2022-09-14T15:23:42;5.33;;;2.20;;
15950;SDS011;8074;48.112;11.570;2022-09-14T15:26:34;9.10;;;2.47;;
15950;SDS011;8074;48.112;11.570;2022-09-14T15:29:04;5.93;;;2.50;;
15950;SDS011;8074;48.112;11.570;2022-09-14T15:31:33;7.17;;;3.27;;
15950;SDS011;8074;48.112;11.570;2022-09-14T15:34:00;6.73;;;2.33;;
15950;SDS011;8074;48.112;11.570;2022-09-14T15:36:36;8.33;;;2.30;;
15950;SDS011;8074;48.112;11.570;2022-09-14T15:39:26;5.60;;;2.03;;
15950;SDS011;8074;48.112;11.570;2022-09-14T15:42:22;5.77;;;2.30;;
15950;SDS011;8074;48.112;11.570;2022-09-14T15:45:14;6.50;;;2.20;;
15950;SDS011;8074;48.112;11.570;2022-09-14T15:48:06;4.43;;;2.23;;
15950;SDS011;8074;48.112;11.570;2022-09-14T15:51:14;4.87;;;2.37;;
15950;SDS011;8074;48.112;11.570;2022-09-14T15:54:04;4.27;;;2.20;;
15950;SDS011;8074;48.112;11.570;2022-09-14T15:56:52;7.03;;;2.60;;
15950;SDS011;8074;48.112;11.570;2022-09-14T15:59:56;7.13;;;3.50;;
15950;SDS011;8074;48.112;11.570;2022-09-14T16:02:49;9.87;;;3.03;;
15950;SDS011;8074;48.112;11.570;2022-09-14T16:05:39;9.47;;;4.77;;
15950;SDS011;8074;48.112;11.570;2022-09-14T16:08:40;5.43;;;3.10;;
15950;SDS011;8074;48.112;11.570;2022-09-14T16:11:28;6.60;;;3.23;;
15950;SDS011;8074;48.112;11.570;2022-09-14T16:14:15;4.10;;;2.60;;
15950;SDS011;8074;48.112;11.570;2022-09-14T16:17:13;6.60;;;2.70;;
15950;SDS011;8074;48.112;11.570;2022-09-14T16:20:03;4.60;;;2.70;;
15950;SDS011;8074;48.112;11.570;2022-09-14T16:22:53;4.87;;;2.77;;
15950;SDS011;8074;48.112;11.570;2022-09-14T16:25:41;6.30;;;2.93;;
15950;SDS011;8074;48.112;11.570;2022-09-14T16:28:30;5.13;;;2.90;;
15950;SDS011;8074;48.112;11.570;2022-09-14T16:31:19;7.10;;;2.97;;
15950;SDS011;8074;48.112;11.570;2022-09-14T16:34:13;7.40;;;3.47;;
15950;SDS011;8074;48.112;11.570;2022-09-14T16:37:05;5.90;;;3.60;;
15950;SDS011;8074;48.112;11.570;2022-09-14T16:39:53;5.47;;;2.90;;
15950;SDS011;8074;48.112;11.570;2022-09-14T16:42:43;5.83;;;2.90;;
15950;SDS011;8074;48.112;11.570;2022-09-14T16:45:32;5.67;;;2.63;;
15950;SDS011;8074;48.112;11.570;2022-09-14T16:48:38;4.07;;;2.70;;
15950;SDS011;8074;48.112;11.570;2022-09-14T16:51:39;8.37;;;3.73;;
15950;SDS011;8074;48.112;11.570;2022-09-14T16:57:15;8.90;;;4.13;;
15950;SDS011;8074;48.112;11.570;2022-09-14T17:00:02;3.47;;;2.73;;
15950;SDS011;8074;48.112;11.570;2022-09-14T17:02:51;7.47;;;3.37;;
15950;SDS011;8074;48.112;11.570;2022-09-14T17:05:38;6.13;;;3.47;;
15950;SDS011;8074;48.112;11.570;2022-09-14T17:08:26;6.53;;;3.70;;
15950;SDS011;8074;48.112;11.570;2022-09-14T17:11:16;7.80;;;3.40;;
15950;SDS011;8074;48.112;11.570;2022-09-14T17:13:44;7.73;;;5.27;;